sensor_id;sensor_type;location;lat;lon;timestamp;P1;durP1;ratioP1;P2;durP2;ratioP2
69917;SDS011;57203;42.672;23.334;2023-04-15T00:00:36;4.4;;;2.5;;
69917;SDS011;57203;42.672;23.334;2023-04-15T00:01:36;3.6;;;4.8;;
69917;SDS011;57203;42.672;23.334;2023-04-15T00:02:36;11.0;;;3.3;;
69917;SDS011;57203;42.672;23.334;2023-04-15T00:03:36;6.3;;;2.6;;
69917;SDS011;57203;42.672;23.334;2023-04-15T00:04:36;4.4;;;2.2;;
69917;SDS011;57203;42.672;23.334;2023-04-15T00:05:37;6.1;;;2.7;;
69917;SDS011;57203;42.672;23.334;2023-04-15T00:06:37;6.1;;;2.6;;
69917;SDS011;57203;42.672;23.334;2023-04-15T00:07:37;4.1;;;2.3;;
69917;SDS011;57203;42.672;23.334;2023-04-15T00:09:37;4.8;;;2.7;;
69917;SDS011;57203;42.672;23.334;2023-04-15T00:10:37;5.2;;;3.3;;
69917;SDS011;57203;42.672;23.334;2023-04-15T00:11:38;5.9;;;2.7;;
69917;SDS011;57203;42.672;23.334;2023-04-15T00:12:38;4.8;;;3.6;;
69917;SDS011;57203;42.672;23.334;2023-04-15T00:13:38;6.8;;;3.2;;
69917;SDS011;57203;42.672;23.334;2023-04-15T00:14:38;6.5;;;3.8;;
69917;SDS011;57203;42.672;23.334;2023-04-15T00:15:38;6.9;;;3.4;;
69917;SDS011;57203;42.672;23.334;2023-04-15T00:17:39;7.7;;;3.2;;
69917;SDS011;57203;42.672;23.334;2023-04-15T00:18:39;5.0;;;3.4;;
69917;SDS011;57203;42.672;23.334;2023-04-15T00:19:39;5.1;;;3.5;;
69917;SDS011;57203;42.672;23.334;2023-04-15T00:20:39;7.4;;;3.4;;
69917;SDS011;57203;42.672;23.334;2023-04-15T00:21:39;6.0;;;3.1;;
69917;SDS011;57203;42.672;23.334;2023-04-15T00:22:40;4.4;;;3.5;;
69917;SDS011;57203;42.672;23.334;2023-04-15T00:23:40;5.9;;;3.1;;
69917;SDS011;57203;42.672;23.334;2023-04-15T00:24:40;5.3;;;3.2;;
69917;SDS011;57203;42.672;23.334;2023-04-15T00:25:40;6.2;;;2.8;;
69917;SDS011;57203;42.672;23.334;2023-04-15T00:26:40;5.4;;;2.5;;
69917;SDS011;57203;42.672;23.334;2023-04-15T00:27:40;3.6;;;3.0;;
69917;SDS011;57203;42.672;23.334;2023-04-15T00:29:41;6.9;;;2.6;;
69917;SDS011;57203;42.672;23.334;2023-04-15T00:30:41;3.9;;;2.8;;
69917;SDS011;57203;42.672;23.334;2023-04-15T00:31:41;6.3;;;2.9;;
69917;SDS011;57203;42.672;23.334;2023-04-15T00:33:41;5.8;;;2.8;;
69917;SDS011;57203;42.672;23.334;2023-04-15T00:34:42;5.8;;;2.4;;
69917;SDS011;57203;42.672;23.334;2023-04-15T00:35:42;4.7;;;2.6;;
69917;SDS011;57203;42.672;23.334;2023-04-15T00:36:42;5.0;;;2.5;;
69917;SDS011;57203;42.672;23.334;2023-04-15T00:37:42;4.4;;;2.6;;
69917;SDS011;57203;42.672;23.334;2023-04-15T00:40:43;3.6;;;2.4;;
69917;SDS011;57203;42.672;23.334;2023-04-15T00:41:43;5.0;;;2.3;;
69917;SDS011;57203;42.672;23.334;2023-04-15T00:42:43;5.1;;;2.8;;
69917;SDS011;57203;42.672;23.334;2023-04-15T00:43:43;4.6;;;2.7;;
69917;SDS011;57203;42.672;23.334;2023-04-15T00:45:44;5.6;;;2.8;;
69917;SDS011;57203;42.672;23.334;2023-04-15T00:46:44;6.3;;;3.0;;
69917;SDS011;57203;42.672;23.334;2023-04-15T00:47:44;5.2;;;2.6;;
69917;SDS011;57203;42.672;23.334;2023-04-15T00:49:44;4.9;;;2.9;;
69917;SDS011;57203;42.672;23.334;2023-04-15T00:50:45;4.9;;;3.0;;
69917;SDS011;57203;42.672;23.334;2023-04-15T00:51:45;5.9;;;2.8;;
69917;SDS011;57203;42.672;23.334;2023-04-15T00:52:45;5.4;;;2.6;;
69917;SDS011;57203;42.672;23.334;2023-04-15T00:53:45;6.1;;;2.5;;
69917;SDS011;57203;42.672;23.334;2023-04-15T00:54:45;6.4;;;2.7;;
69917;SDS011;57203;42.672;23.334;2023-04-15T00:55:45;5.4;;;2.2;;
69917;SDS011;57203;42.672;23.334;2023-04-15T00:56:46;3.5;;;2.7;;
69917;SDS011;57203;42.672;23.334;2023-04-15T00:57:46;3.5;;;2.4;;
69917;SDS011;57203;42.672;23.334;2023-04-15T00:58:46;3.5;;;2.7;;
69917;SDS011;57203;42.672;23.334;2023-04-15T00:59:46;5.8;;;2.5;;
69917;SDS011;57203;42.672;23.334;2023-04-15T01:00:46;4.2;;;2.6;;
69917;SDS011;57203;42.672;23.334;2023-04-15T01:01:46;5.7;;;2.9;;
69917;SDS011;57203;42.672;23.334;2023-04-15T01:02:47;4.0;;;2.7;;
69917;SDS011;57203;42.672;23.334;2023-04-15T01:03:47;22.1;;;11.5;;
69917;SDS011;57203;42.672;23.334;2023-04-15T01:04:47;22.1;;;6.1;;
69917;SDS011;57203;42.672;23.334;2023-04-15T01:05:47;12.5;;;3.1;;
69917;SDS011;57203;42.672;23.334;2023-04-15T01:06:47;5.4;;;3.6;;
69917;SDS011;57203;42.672;23.334;2023-04-15T01:07:48;6.5;;;3.3;;
69917;SDS011;57203;42.672;23.334;2023-04-15T01:09:48;5.7;;;2.8;;
69917;SDS011;57203;42.672;23.334;2023-04-15T01:10:48;5.2;;;3.0;;
69917;SDS011;57203;42.672;23.334;2023-04-15T01:12:48;4.9;;;2.9;;
69917;SDS011;57203;42.672;23.334;2023-04-15T01:13:49;4.3;;;2.7;;
69917;SDS011;57203;42.672;23.334;2023-04-15T01:14:49;4.7;;;2.9;;
69917;SDS011;57203;42.672;23.334;2023-04-15T01:15:49;4.7;;;2.4;;
69917;SDS011;57203;42.672;23.334;2023-04-15T01:16:49;3.6;;;2.6;;
69917;SDS011;57203;42.672;23.334;2023-04-15T01:18:50;3.6;;;2.9;;
69917;SDS011;57203;42.672;23.334;2023-04-15T01:19:50;3.6;;;3.6;;
69917;SDS011;57203;42.672;23.334;2023-04-15T01:20:50;5.9;;;3.1;;
69917;SDS011;57203;42.672;23.334;2023-04-15T01:21:50;5.7;;;3.3;;
69917;SDS011;57203;42.672;23.334;2023-04-15T01:22:50;5.7;;;3.2;;
69917;SDS011;57203;42.672;23.334;2023-04-15T01:24:53;6.7;;;3.1;;
69917;SDS011;57203;42.672;23.334;2023-04-15T01:26:51;5.0;;;3.2;;
69917;SDS011;57203;42.672;23.334;2023-04-15T01:27:51;5.6;;;2.9;;
69917;SDS011;57203;42.672;23.334;2023-04-15T01:28:51;4.1;;;3.0;;
69917;SDS011;57203;42.672;23.334;2023-04-15T01:29:52;4.4;;;3.1;;
69917;SDS011;57203;42.672;23.334;2023-04-15T01:31:52;4.3;;;3.4;;
69917;SDS011;57203;42.672;23.334;2023-04-15T01:33:52;5.1;;;4.5;;
69917;SDS011;57203;42.672;23.334;2023-04-15T01:34:52;8.4;;;5.5;;
69917;SDS011;57203;42.672;23.334;2023-04-15T01:35:53;10.6;;;5.4;;
69917;SDS011;57203;42.672;23.334;2023-04-15T01:36:53;11.2;;;3.9;;
69917;SDS011;57203;42.672;23.334;2023-04-15T01:37:53;7.4;;;4.0;;
69917;SDS011;57203;42.672;23.334;2023-04-15T01:38:53;5.1;;;3.4;;
69917;SDS011;57203;42.672;23.334;2023-04-15T01:39:53;5.1;;;3.2;;
69917;SDS011;57203;42.672;23.334;2023-04-15T01:40:54;5.4;;;3.9;;
69917;SDS011;57203;42.672;23.334;2023-04-15T01:41:54;7.1;;;3.4;;
69917;SDS011;57203;42.672;23.334;2023-04-15T01:43:54;5.8;;;4.0;;
69917;SDS011;57203;42.672;23.334;2023-04-15T01:44:54;5.5;;;3.7;;
69917;SDS011;57203;42.672;23.334;2023-04-15T01:45:54;8.5;;;4.1;;
69917;SDS011;57203;42.672;23.334;2023-04-15T01:46:55;8.5;;;4.2;;
69917;SDS011;57203;42.672;23.334;2023-04-15T01:47:55;8.8;;;3.7;;
69917;SDS011;57203;42.672;23.334;2023-04-15T01:49:55;6.2;;;3.9;;
69917;SDS011;57203;42.672;23.334;2023-04-15T01:51:55;7.3;;;3.6;;
69917;SDS011;57203;42.672;23.334;2023-04-15T01:52:56;8.1;;;4.3;;
69917;SDS011;57203;42.672;23.334;2023-04-15T01:53:56;8.1;;;3.9;;
69917;SDS011;57203;42.672;23.334;2023-04-15T01:54:56;8.1;;;3.8;;
69917;SDS011;57203;42.672;23.334;2023-04-15T01:55:56;5.9;;;4.3;;
69917;SDS011;57203;42.672;23.334;2023-04-15T01:56:56;7.8;;;3.9;;
69917;SDS011;57203;42.672;23.334;2023-04-15T01:57:56;5.9;;;3.5;;
69917;SDS011;57203;42.672;23.334;2023-04-15T01:58:57;5.4;;;3.6;;
69917;SDS011;57203;42.672;23.334;2023-04-15T01:59:57;5.6;;;3.3;;
69917;SDS011;57203;42.672;23.334;2023-04-15T02:00:57;7.1;;;3.6;;
69917;SDS011;57203;42.672;23.334;2023-04-15T02:01:57;6.7;;;3.3;;
69917;SDS011;57203;42.672;23.334;2023-04-15T02:02:57;7.1;;;3.8;;
69917;SDS011;57203;42.672;23.334;2023-04-15T02:03:58;6.2;;;3.7;;
69917;SDS011;57203;42.672;23.334;2023-04-15T02:05:58;6.0;;;3.5;;
69917;SDS011;57203;42.672;23.334;2023-04-15T02:06:58;6.3;;;3.4;;
69917;SDS011;57203;42.672;23.334;2023-04-15T02:07:58;5.6;;;3.6;;
69917;SDS011;57203;42.672;23.334;2023-04-15T02:09:59;5.4;;;3.7;;
69917;SDS011;57203;42.672;23.334;2023-04-15T02:11:59;6.8;;;4.1;;
69917;SDS011;57203;42.672;23.334;2023-04-15T02:12:59;6.2;;;4.0;;
69917;SDS011;57203;42.672;23.334;2023-04-15T02:13:59;5.2;;;3.5;;
69917;SDS011;57203;42.672;23.334;2023-04-15T02:14:59;5.2;;;3.7;;
69917;SDS011;57203;42.672;23.334;2023-04-15T02:16:00;5.6;;;3.4;;
69917;SDS011;57203;42.672;23.334;2023-04-15T02:17:00;5.6;;;3.1;;
69917;SDS011;57203;42.672;23.334;2023-04-15T02:18:00;6.3;;;3.6;;
69917;SDS011;57203;42.672;23.334;2023-04-15T02:19:00;6.1;;;3.5;;
69917;SDS011;57203;42.672;23.334;2023-04-15T02:20:00;5.7;;;3.3;;
69917;SDS011;57203;42.672;23.334;2023-04-15T02:21:00;6.2;;;3.4;;
69917;SDS011;57203;42.672;23.334;2023-04-15T02:23:01;5.5;;;3.8;;
69917;SDS011;57203;42.672;23.334;2023-04-15T02:24:01;6.4;;;3.3;;
69917;SDS011;57203;42.672;23.334;2023-04-15T02:25:01;6.2;;;3.4;;
69917;SDS011;57203;42.672;23.334;2023-04-15T02:26:01;6.2;;;3.5;;
69917;SDS011;57203;42.672;23.334;2023-04-15T02:27:02;4.6;;;3.0;;
69917;SDS011;57203;42.672;23.334;2023-04-15T02:28:02;5.1;;;3.3;;
69917;SDS011;57203;42.672;23.334;2023-04-15T02:29:02;6.8;;;3.7;;
69917;SDS011;57203;42.672;23.334;2023-04-15T02:31:04;5.7;;;3.5;;
69917;SDS011;57203;42.672;23.334;2023-04-15T02:32:02;6.1;;;3.6;;
69917;SDS011;57203;42.672;23.334;2023-04-15T02:34:03;5.0;;;3.5;;
69917;SDS011;57203;42.672;23.334;2023-04-15T02:35:03;5.8;;;3.9;;
69917;SDS011;57203;42.672;23.334;2023-04-15T02:36:03;5.8;;;4.0;;
69917;SDS011;57203;42.672;23.334;2023-04-15T02:37:03;5.6;;;4.2;;
69917;SDS011;57203;42.672;23.334;2023-04-15T02:38:03;6.4;;;3.9;;
69917;SDS011;57203;42.672;23.334;2023-04-15T02:39:04;6.8;;;3.5;;
69917;SDS011;57203;42.672;23.334;2023-04-15T02:41:04;6.9;;;3.6;;
69917;SDS011;57203;42.672;23.334;2023-04-15T02:42:04;6.2;;;3.8;;
69917;SDS011;57203;42.672;23.334;2023-04-15T02:43:04;7.3;;;3.7;;
69917;SDS011;57203;42.672;23.334;2023-04-15T02:44:04;7.5;;;3.4;;
69917;SDS011;57203;42.672;23.334;2023-04-15T02:46:05;5.8;;;3.1;;
69917;SDS011;57203;42.672;23.334;2023-04-15T02:47:05;4.5;;;3.6;;
69917;SDS011;57203;42.672;23.334;2023-04-15T02:48:05;5.1;;;4.0;;
69917;SDS011;57203;42.672;23.334;2023-04-15T02:49:05;6.7;;;4.2;;
69917;SDS011;57203;42.672;23.334;2023-04-15T02:50:06;6.7;;;3.8;;
69917;SDS011;57203;42.672;23.334;2023-04-15T02:51:13;6.5;;;3.5;;
69917;SDS011;57203;42.672;23.334;2023-04-15T02:52:06;4.7;;;3.8;;
69917;SDS011;57203;42.672;23.334;2023-04-15T02:53:06;5.7;;;3.7;;
69917;SDS011;57203;42.672;23.334;2023-04-15T02:54:06;6.0;;;3.5;;
69917;SDS011;57203;42.672;23.334;2023-04-15T02:55:07;5.4;;;3.9;;
69917;SDS011;57203;42.672;23.334;2023-04-15T02:56:06;6.1;;;4.2;;
69917;SDS011;57203;42.672;23.334;2023-04-15T02:57:07;6.8;;;4.3;;
69917;SDS011;57203;42.672;23.334;2023-04-15T02:58:07;8.8;;;4.5;;
69917;SDS011;57203;42.672;23.334;2023-04-15T02:59:07;7.2;;;4.4;;
69917;SDS011;57203;42.672;23.334;2023-04-15T03:01:07;8.3;;;4.5;;
69917;SDS011;57203;42.672;23.334;2023-04-15T03:02:07;8.3;;;5.4;;
69917;SDS011;57203;42.672;23.334;2023-04-15T03:03:08;8.9;;;5.2;;
69917;SDS011;57203;42.672;23.334;2023-04-15T03:04:08;8.3;;;5.3;;
69917;SDS011;57203;42.672;23.334;2023-04-15T03:05:10;8.3;;;6.1;;
69917;SDS011;57203;42.672;23.334;2023-04-15T03:06:08;12.8;;;5.8;;
69917;SDS011;57203;42.672;23.334;2023-04-15T03:08:08;12.1;;;5.9;;
69917;SDS011;57203;42.672;23.334;2023-04-15T03:09:09;12.9;;;6.2;;
69917;SDS011;57203;42.672;23.334;2023-04-15T03:11:09;11.4;;;6.1;;
69917;SDS011;57203;42.672;23.334;2023-04-15T03:12:09;11.4;;;5.3;;
69917;SDS011;57203;42.672;23.334;2023-04-15T03:13:09;9.7;;;5.9;;
69917;SDS011;57203;42.672;23.334;2023-04-15T03:14:09;13.2;;;5.4;;
69917;SDS011;57203;42.672;23.334;2023-04-15T03:15:10;13.2;;;5.5;;
69917;SDS011;57203;42.672;23.334;2023-04-15T03:16:10;9.7;;;4.8;;
69917;SDS011;57203;42.672;23.334;2023-04-15T03:18:10;8.1;;;5.8;;
69917;SDS011;57203;42.672;23.334;2023-04-15T03:19:10;9.4;;;5.4;;
69917;SDS011;57203;42.672;23.334;2023-04-15T03:20:10;8.2;;;4.9;;
69917;SDS011;57203;42.672;23.334;2023-04-15T03:21:11;8.1;;;5.0;;
69917;SDS011;57203;42.672;23.334;2023-04-15T03:22:11;8.1;;;5.6;;
69917;SDS011;57203;42.672;23.334;2023-04-15T03:23:11;8.0;;;5.3;;
69917;SDS011;57203;42.672;23.334;2023-04-15T03:24:11;7.8;;;5.2;;
69917;SDS011;57203;42.672;23.334;2023-04-15T03:25:11;7.8;;;5.6;;
69917;SDS011;57203;42.672;23.334;2023-04-15T03:27:12;8.5;;;5.0;;
69917;SDS011;57203;42.672;23.334;2023-04-15T03:28:12;6.8;;;5.3;;
69917;SDS011;57203;42.672;23.334;2023-04-15T03:29:12;7.5;;;4.9;;
69917;SDS011;57203;42.672;23.334;2023-04-15T03:30:12;8.6;;;5.2;;
69917;SDS011;57203;42.672;23.334;2023-04-15T03:31:12;7.5;;;4.8;;
69917;SDS011;57203;42.672;23.334;2023-04-15T03:32:12;7.5;;;5.1;;
69917;SDS011;57203;42.672;23.334;2023-04-15T03:33:13;9.1;;;4.4;;
69917;SDS011;57203;42.672;23.334;2023-04-15T03:35:13;10.5;;;4.7;;
69917;SDS011;57203;42.672;23.334;2023-04-15T03:36:13;7.1;;;4.8;;
69917;SDS011;57203;42.672;23.334;2023-04-15T03:37:13;7.1;;;4.4;;
69917;SDS011;57203;42.672;23.334;2023-04-15T03:38:13;7.4;;;4.3;;
69917;SDS011;57203;42.672;23.334;2023-04-15T03:39:14;7.3;;;4.4;;
69917;SDS011;57203;42.672;23.334;2023-04-15T03:41:14;8.8;;;4.3;;
69917;SDS011;57203;42.672;23.334;2023-04-15T03:42:14;8.8;;;4.6;;
69917;SDS011;57203;42.672;23.334;2023-04-15T03:43:14;7.3;;;4.4;;
69917;SDS011;57203;42.672;23.334;2023-04-15T03:44:14;5.9;;;3.8;;
69917;SDS011;57203;42.672;23.334;2023-04-15T03:45:15;6.8;;;4.2;;
69917;SDS011;57203;42.672;23.334;2023-04-15T03:46:15;6.8;;;4.4;;
69917;SDS011;57203;42.672;23.334;2023-04-15T03:47:15;7.1;;;3.8;;
69917;SDS011;57203;42.672;23.334;2023-04-15T03:48:15;5.5;;;4.4;;
69917;SDS011;57203;42.672;23.334;2023-04-15T03:49:15;7.4;;;4.5;;
69917;SDS011;57203;42.672;23.334;2023-04-15T03:50:15;7.4;;;4.6;;
69917;SDS011;57203;42.672;23.334;2023-04-15T03:51:16;6.7;;;4.5;;
69917;SDS011;57203;42.672;23.334;2023-04-15T03:52:16;8.3;;;3.8;;
69917;SDS011;57203;42.672;23.334;2023-04-15T03:53:16;6.9;;;4.3;;
69917;SDS011;57203;42.672;23.334;2023-04-15T03:54:16;7.5;;;4.4;;
69917;SDS011;57203;42.672;23.334;2023-04-15T03:55:16;6.7;;;4.8;;
69917;SDS011;57203;42.672;23.334;2023-04-15T03:56:16;6.5;;;4.0;;
69917;SDS011;57203;42.672;23.334;2023-04-15T03:57:17;8.3;;;4.5;;
69917;SDS011;57203;42.672;23.334;2023-04-15T03:58:17;6.9;;;4.3;;
69917;SDS011;57203;42.672;23.334;2023-04-15T04:00:17;7.8;;;4.4;;
69917;SDS011;57203;42.672;23.334;2023-04-15T04:01:17;6.6;;;4.6;;
69917;SDS011;57203;42.672;23.334;2023-04-15T04:02:17;6.6;;;4.9;;
69917;SDS011;57203;42.672;23.334;2023-04-15T04:03:18;8.4;;;4.6;;
69917;SDS011;57203;42.672;23.334;2023-04-15T04:04:18;7.9;;;4.1;;
69917;SDS011;57203;42.672;23.334;2023-04-15T04:05:18;5.3;;;4.0;;
69917;SDS011;57203;42.672;23.334;2023-04-15T04:08:18;7.8;;;4.4;;
69917;SDS011;57203;42.672;23.334;2023-04-15T04:09:18;8.0;;;4.1;;
69917;SDS011;57203;42.672;23.334;2023-04-15T04:10:19;6.0;;;3.9;;
69917;SDS011;57203;42.672;23.334;2023-04-15T04:11:19;6.5;;;4.3;;
69917;SDS011;57203;42.672;23.334;2023-04-15T04:12:19;6.6;;;4.0;;
69917;SDS011;57203;42.672;23.334;2023-04-15T04:13:20;5.5;;;4.5;;
69917;SDS011;57203;42.672;23.334;2023-04-15T04:14:19;7.0;;;4.8;;
69917;SDS011;57203;42.672;23.334;2023-04-15T04:15:19;7.4;;;4.4;;
69917;SDS011;57203;42.672;23.334;2023-04-15T04:16:20;11.2;;;4.5;;
69917;SDS011;57203;42.672;23.334;2023-04-15T04:17:20;8.0;;;4.9;;
69917;SDS011;57203;42.672;23.334;2023-04-15T04:18:20;9.4;;;5.3;;
69917;SDS011;57203;42.672;23.334;2023-04-15T04:19:20;9.4;;;5.9;;
69917;SDS011;57203;42.672;23.334;2023-04-15T04:20:20;8.9;;;5.6;;
69917;SDS011;57203;42.672;23.334;2023-04-15T04:21:20;8.9;;;4.3;;
69917;SDS011;57203;42.672;23.334;2023-04-15T04:22:21;7.6;;;4.7;;
69917;SDS011;57203;42.672;23.334;2023-04-15T04:23:21;9.3;;;4.8;;
69917;SDS011;57203;42.672;23.334;2023-04-15T04:24:21;7.6;;;4.6;;
69917;SDS011;57203;42.672;23.334;2023-04-15T04:25:21;7.6;;;5.1;;
69917;SDS011;57203;42.672;23.334;2023-04-15T04:27:21;10.3;;;4.6;;
69917;SDS011;57203;42.672;23.334;2023-04-15T04:28:22;7.4;;;4.8;;
69917;SDS011;57203;42.672;23.334;2023-04-15T04:29:22;8.1;;;4.7;;
69917;SDS011;57203;42.672;23.334;2023-04-15T04:30:22;10.0;;;4.3;;
69917;SDS011;57203;42.672;23.334;2023-04-15T04:31:22;8.7;;;5.1;;
69917;SDS011;57203;42.672;23.334;2023-04-15T04:32:22;8.7;;;4.7;;
69917;SDS011;57203;42.672;23.334;2023-04-15T04:33:22;9.6;;;4.8;;
69917;SDS011;57203;42.672;23.334;2023-04-15T04:34:23;8.3;;;5.2;;
69917;SDS011;57203;42.672;23.334;2023-04-15T04:35:23;7.8;;;4.7;;
69917;SDS011;57203;42.672;23.334;2023-04-15T04:36:23;7.8;;;5.3;;
69917;SDS011;57203;42.672;23.334;2023-04-15T04:37:23;8.2;;;5.0;;
69917;SDS011;57203;42.672;23.334;2023-04-15T04:38:23;9.6;;;5.5;;
69917;SDS011;57203;42.672;23.334;2023-04-15T04:39:23;10.8;;;5.3;;
69917;SDS011;57203;42.672;23.334;2023-04-15T04:40:23;9.4;;;5.9;;
69917;SDS011;57203;42.672;23.334;2023-04-15T04:41:23;10.7;;;5.0;;
69917;SDS011;57203;42.672;23.334;2023-04-15T04:42:24;10.7;;;5.6;;
69917;SDS011;57203;42.672;23.334;2023-04-15T04:43:24;11.2;;;4.7;;
69917;SDS011;57203;42.672;23.334;2023-04-15T04:44:24;7.7;;;5.5;;
69917;SDS011;57203;42.672;23.334;2023-04-15T04:45:24;7.7;;;5.8;;
69917;SDS011;57203;42.672;23.334;2023-04-15T04:46:24;10.3;;;5.6;;
69917;SDS011;57203;42.672;23.334;2023-04-15T04:48:25;7.9;;;6.0;;
69917;SDS011;57203;42.672;23.334;2023-04-15T04:49:25;10.9;;;5.8;;
69917;SDS011;57203;42.672;23.334;2023-04-15T04:50:25;9.4;;;5.7;;
69917;SDS011;57203;42.672;23.334;2023-04-15T04:51:26;8.4;;;6.0;;
69917;SDS011;57203;42.672;23.334;2023-04-15T04:52:25;11.5;;;5.5;;
69917;SDS011;57203;42.672;23.334;2023-04-15T04:53:26;8.3;;;5.9;;
69917;SDS011;57203;42.672;23.334;2023-04-15T04:54:26;8.4;;;6.7;;
69917;SDS011;57203;42.672;23.334;2023-04-15T04:55:26;8.8;;;5.7;;
69917;SDS011;57203;42.672;23.334;2023-04-15T04:56:26;8.3;;;6.2;;
69917;SDS011;57203;42.672;23.334;2023-04-15T04:57:26;8.3;;;6.8;;
69917;SDS011;57203;42.672;23.334;2023-04-15T04:58:26;12.6;;;6.9;;
69917;SDS011;57203;42.672;23.334;2023-04-15T04:59:26;12.5;;;6.5;;
69917;SDS011;57203;42.672;23.334;2023-04-15T05:00:27;9.9;;;6.7;;
69917;SDS011;57203;42.672;23.334;2023-04-15T05:02:27;11.6;;;7.5;;
69917;SDS011;57203;42.672;23.334;2023-04-15T05:03:27;12.5;;;7.0;;
69917;SDS011;57203;42.672;23.334;2023-04-15T05:05:28;9.6;;;6.8;;
69917;SDS011;57203;42.672;23.334;2023-04-15T05:06:28;11.1;;;6.7;;
69917;SDS011;57203;42.672;23.334;2023-04-15T05:07:28;11.1;;;6.6;;
69917;SDS011;57203;42.672;23.334;2023-04-15T05:08:28;11.0;;;7.3;;
69917;SDS011;57203;42.672;23.334;2023-04-15T05:09:28;12.6;;;7.0;;
69917;SDS011;57203;42.672;23.334;2023-04-15T05:10:28;10.0;;;6.9;;
69917;SDS011;57203;42.672;23.334;2023-04-15T05:11:28;12.1;;;7.4;;
69917;SDS011;57203;42.672;23.334;2023-04-15T05:12:29;12.2;;;6.4;;
69917;SDS011;57203;42.672;23.334;2023-04-15T05:13:29;11.5;;;7.1;;
69917;SDS011;57203;42.672;23.334;2023-04-15T05:14:29;10.8;;;6.5;;
69917;SDS011;57203;42.672;23.334;2023-04-15T05:15:29;10.8;;;6.7;;
69917;SDS011;57203;42.672;23.334;2023-04-15T05:16:29;9.9;;;6.5;;
69917;SDS011;57203;42.672;23.334;2023-04-15T05:17:30;9.6;;;6.3;;
69917;SDS011;57203;42.672;23.334;2023-04-15T05:18:30;10.6;;;5.6;;
69917;SDS011;57203;42.672;23.334;2023-04-15T05:19:30;9.3;;;5.7;;
69917;SDS011;57203;42.672;23.334;2023-04-15T05:20:30;7.5;;;5.9;;
69917;SDS011;57203;42.672;23.334;2023-04-15T05:21:30;9.7;;;5.8;;
69917;SDS011;57203;42.672;23.334;2023-04-15T05:22:30;8.6;;;5.9;;
69917;SDS011;57203;42.672;23.334;2023-04-15T05:23:31;9.3;;;5.3;;
69917;SDS011;57203;42.672;23.334;2023-04-15T05:24:31;9.4;;;5.6;;
69917;SDS011;57203;42.672;23.334;2023-04-15T05:25:31;9.4;;;5.8;;
69917;SDS011;57203;42.672;23.334;2023-04-15T05:26:31;8.2;;;5.7;;
69917;SDS011;57203;42.672;23.334;2023-04-15T05:27:31;9.7;;;5.5;;
69917;SDS011;57203;42.672;23.334;2023-04-15T05:28:31;8.4;;;5.4;;
69917;SDS011;57203;42.672;23.334;2023-04-15T05:30:32;8.3;;;5.3;;
69917;SDS011;57203;42.672;23.334;2023-04-15T05:31:32;8.0;;;6.0;;
69917;SDS011;57203;42.672;23.334;2023-04-15T05:32:32;8.6;;;5.6;;
69917;SDS011;57203;42.672;23.334;2023-04-15T05:33:32;9.2;;;5.8;;
69917;SDS011;57203;42.672;23.334;2023-04-15T05:34:32;10.4;;;6.1;;
69917;SDS011;57203;42.672;23.334;2023-04-15T05:35:33;10.4;;;5.2;;
69917;SDS011;57203;42.672;23.334;2023-04-15T05:36:33;8.5;;;4.9;;
69917;SDS011;57203;42.672;23.334;2023-04-15T05:37:33;7.6;;;4.7;;
69917;SDS011;57203;42.672;23.334;2023-04-15T05:39:33;7.3;;;4.1;;
69917;SDS011;57203;42.672;23.334;2023-04-15T05:40:33;6.5;;;4.4;;
69917;SDS011;57203;42.672;23.334;2023-04-15T05:41:34;6.4;;;3.8;;
69917;SDS011;57203;42.672;23.334;2023-04-15T05:42:34;5.2;;;4.4;;
69917;SDS011;57203;42.672;23.334;2023-04-15T05:43:34;6.7;;;3.6;;
69917;SDS011;57203;42.672;23.334;2023-04-15T05:44:34;7.2;;;3.8;;
69917;SDS011;57203;42.672;23.334;2023-04-15T05:46:35;8.7;;;4.6;;
69917;SDS011;57203;42.672;23.334;2023-04-15T05:49:35;9.1;;;4.9;;
69917;SDS011;57203;42.672;23.334;2023-04-15T05:51:35;10.0;;;4.3;;
69917;SDS011;57203;42.672;23.334;2023-04-15T05:52:36;6.7;;;4.1;;
69917;SDS011;57203;42.672;23.334;2023-04-15T05:53:36;5.7;;;4.2;;
69917;SDS011;57203;42.672;23.334;2023-04-15T05:54:36;7.5;;;4.6;;
69917;SDS011;57203;42.672;23.334;2023-04-15T05:55:36;8.7;;;4.2;;
69917;SDS011;57203;42.672;23.334;2023-04-15T05:56:36;5.3;;;4.5;;
69917;SDS011;57203;42.672;23.334;2023-04-15T05:57:36;8.9;;;4.7;;
69917;SDS011;57203;42.672;23.334;2023-04-15T05:58:37;6.4;;;4.5;;
69917;SDS011;57203;42.672;23.334;2023-04-15T05:59:37;6.5;;;4.4;;
69917;SDS011;57203;42.672;23.334;2023-04-15T06:00:37;7.3;;;4.9;;
69917;SDS011;57203;42.672;23.334;2023-04-15T06:01:37;8.0;;;4.8;;
69917;SDS011;57203;42.672;23.334;2023-04-15T06:02:38;7.7;;;5.4;;
69917;SDS011;57203;42.672;23.334;2023-04-15T06:03:38;7.7;;;5.0;;
69917;SDS011;57203;42.672;23.334;2023-04-15T06:04:38;8.1;;;5.3;;
69917;SDS011;57203;42.672;23.334;2023-04-15T06:05:38;8.1;;;5.2;;
69917;SDS011;57203;42.672;23.334;2023-04-15T06:07:38;7.1;;;4.6;;
69917;SDS011;57203;42.672;23.334;2023-04-15T06:08:38;9.6;;;5.1;;
69917;SDS011;57203;42.672;23.334;2023-04-15T06:09:39;8.2;;;5.2;;
69917;SDS011;57203;42.672;23.334;2023-04-15T06:10:39;8.7;;;4.8;;
69917;SDS011;57203;42.672;23.334;2023-04-15T06:11:39;7.4;;;5.2;;
69917;SDS011;57203;42.672;23.334;2023-04-15T06:12:39;9.7;;;4.9;;
69917;SDS011;57203;42.672;23.334;2023-04-15T06:14:40;8.2;;;4.2;;
69917;SDS011;57203;42.672;23.334;2023-04-15T06:15:40;6.3;;;4.7;;
69917;SDS011;57203;42.672;23.334;2023-04-15T06:16:40;8.3;;;4.5;;
69917;SDS011;57203;42.672;23.334;2023-04-15T06:17:40;7.8;;;4.3;;
69917;SDS011;57203;42.672;23.334;2023-04-15T06:18:40;6.3;;;4.5;;
69917;SDS011;57203;42.672;23.334;2023-04-15T06:19:40;6.9;;;4.2;;
69917;SDS011;57203;42.672;23.334;2023-04-15T06:20:41;6.1;;;4.0;;
69917;SDS011;57203;42.672;23.334;2023-04-15T06:21:41;6.3;;;3.9;;
69917;SDS011;57203;42.672;23.334;2023-04-15T06:22:41;8.4;;;3.8;;
69917;SDS011;57203;42.672;23.334;2023-04-15T06:23:41;6.5;;;4.0;;
69917;SDS011;57203;42.672;23.334;2023-04-15T06:25:41;5.6;;;3.9;;
69917;SDS011;57203;42.672;23.334;2023-04-15T06:27:42;6.9;;;3.8;;
69917;SDS011;57203;42.672;23.334;2023-04-15T06:28:42;5.5;;;3.7;;
69917;SDS011;57203;42.672;23.334;2023-04-15T06:31:42;6.4;;;3.6;;
69917;SDS011;57203;42.672;23.334;2023-04-15T06:32:43;5.2;;;3.7;;
69917;SDS011;57203;42.672;23.334;2023-04-15T06:33:43;5.5;;;3.6;;
69917;SDS011;57203;42.672;23.334;2023-04-15T06:34:43;6.7;;;4.1;;
69917;SDS011;57203;42.672;23.334;2023-04-15T06:35:43;6.7;;;3.5;;
69917;SDS011;57203;42.672;23.334;2023-04-15T06:36:43;5.3;;;3.6;;
69917;SDS011;57203;42.672;23.334;2023-04-15T06:37:44;7.1;;;3.8;;
69917;SDS011;57203;42.672;23.334;2023-04-15T06:38:44;8.5;;;4.2;;
69917;SDS011;57203;42.672;23.334;2023-04-15T06:39:44;7.5;;;4.1;;
69917;SDS011;57203;42.672;23.334;2023-04-15T06:40:44;7.0;;;4.4;;
69917;SDS011;57203;42.672;23.334;2023-04-15T06:41:44;6.9;;;3.7;;
69917;SDS011;57203;42.672;23.334;2023-04-15T06:42:45;4.9;;;4.1;;
69917;SDS011;57203;42.672;23.334;2023-04-15T06:43:45;7.3;;;4.2;;
69917;SDS011;57203;42.672;23.334;2023-04-15T06:44:45;6.2;;;4.1;;
69917;SDS011;57203;42.672;23.334;2023-04-15T06:45:45;6.2;;;4.6;;
69917;SDS011;57203;42.672;23.334;2023-04-15T06:46:45;8.3;;;4.2;;
69917;SDS011;57203;42.672;23.334;2023-04-15T06:48:46;6.2;;;4.5;;
69917;SDS011;57203;42.672;23.334;2023-04-15T06:50:46;6.3;;;4.6;;
69917;SDS011;57203;42.672;23.334;2023-04-15T06:51:46;7.9;;;4.3;;
69917;SDS011;57203;42.672;23.334;2023-04-15T06:52:46;7.9;;;4.4;;
69917;SDS011;57203;42.672;23.334;2023-04-15T06:53:47;8.1;;;4.7;;
69917;SDS011;57203;42.672;23.334;2023-04-15T06:54:47;7.7;;;4.5;;
69917;SDS011;57203;42.672;23.334;2023-04-15T06:56:47;6.4;;;4.1;;
69917;SDS011;57203;42.672;23.334;2023-04-15T06:57:47;7.0;;;4.4;;
69917;SDS011;57203;42.672;23.334;2023-04-15T06:58:48;6.7;;;4.5;;
69917;SDS011;57203;42.672;23.334;2023-04-15T07:01:48;10.1;;;4.3;;
69917;SDS011;57203;42.672;23.334;2023-04-15T07:02:48;7.3;;;3.7;;
69917;SDS011;57203;42.672;23.334;2023-04-15T07:03:48;7.5;;;4.4;;
69917;SDS011;57203;42.672;23.334;2023-04-15T07:04:49;7.9;;;4.0;;